createdAt,value
2019-01-13T00:02:04.289Z,60.74
2019-01-13T00:04:33.978Z,59.14
2019-01-13T00:07:03.897Z,57.83
2019-01-13T00:09:33.600Z,58.34
2019-01-13T00:12:03.543Z,58.69
2019-01-13T00:14:33.175Z,58.35
2019-01-13T00:17:02.913Z,59.11
2019-01-13T00:19:32.550Z,59.67
2019-01-13T00:22:02.197Z,59.32
2019-01-13T00:24:31.925Z,57.41
2019-01-13T00:27:01.609Z,58.27
2019-01-13T00:29:31.259Z,59.30
2019-01-13T00:32:01.028Z,57.77
2019-01-13T00:34:30.592Z,57.90
2019-01-13T00:37:00.150Z,57.67
2019-01-13T00:39:29.853Z,58.57
2019-01-13T00:41:59.498Z,58.98
2019-01-13T00:44:29.071Z,58.63
2019-01-13T00:46:58.824Z,58.35
2019-01-13T00:49:28.424Z,60.28
2019-01-13T00:51:58.048Z,59.71
2019-01-13T00:54:27.780Z,60.10
2019-01-13T00:56:57.362Z,61.08
2019-01-13T00:59:26.903Z,61.99
2019-01-13T01:01:56.533Z,62.73
2019-01-13T01:04:55.941Z,64.23
2019-01-13T01:07:41.942Z,63.29
2019-01-13T01:10:13.153Z,63.03
2019-01-13T01:12:42.843Z,63.55
2019-01-13T01:15:12.875Z,62.61
2019-01-13T01:17:42.525Z,62.02
2019-01-13T01:20:13.153Z,61.71
2019-01-13T01:22:43.114Z,62.06
2019-01-13T01:25:14.335Z,62.62
2019-01-13T01:27:44.107Z,62.46
2019-01-13T01:30:18.430Z,61.18
2019-01-13T01:32:48.278Z,61.70
2019-01-13T01:35:18.401Z,61.78
2019-01-13T01:37:48.231Z,62.63
2019-01-13T01:40:21.893Z,61.64
2019-01-13T01:42:51.455Z,62.25
2019-01-13T01:45:21.888Z,62.22
2019-01-13T01:47:51.524Z,62.73
2019-01-13T01:50:21.201Z,62.70
2019-01-13T01:52:50.916Z,63.49
2019-01-13T01:55:20.926Z,63.42
2019-01-13T01:57:50.488Z,63.98
2019-01-13T02:00:22.827Z,65.13
2019-01-13T02:02:52.500Z,65.05
2019-01-13T02:05:22.195Z,63.94
2019-01-13T02:07:52.020Z,63.56
2019-01-13T02:10:22.440Z,64.09
2019-01-13T02:12:52.480Z,64.97
2019-01-13T02:15:27.196Z,63.53
2019-01-13T02:17:57.227Z,64.11
2019-01-13T02:20:26.998Z,64.38
2019-01-13T02:22:56.705Z,63.32
2019-01-13T02:25:28.548Z,64.44
2019-01-13T02:27:58.112Z,64.05
2019-01-13T02:30:28.660Z,63.10
2019-01-13T02:32:58.264Z,61.00
2019-01-13T02:35:27.859Z,62.02
2019-01-13T02:37:57.473Z,62.33
2019-01-13T02:40:27.070Z,62.59
2019-01-13T02:42:56.677Z,63.04
2019-01-13T02:45:28.531Z,63.23
2019-01-13T02:47:58.167Z,62.54
2019-01-13T02:50:27.937Z,62.49
2019-01-13T02:52:57.523Z,62.40
2019-01-13T02:55:27.120Z,61.34
2019-01-13T02:57:56.683Z,61.80
2019-01-13T03:00:27.679Z,61.95
2019-01-13T03:02:57.347Z,61.81
2019-01-13T03:05:27.293Z,61.54
2019-01-13T03:07:56.958Z,61.01
2019-01-13T03:10:27.187Z,61.17
2019-01-13T03:12:56.788Z,60.62
2019-01-13T03:15:27.118Z,59.93
2019-01-13T03:17:56.744Z,61.20
2019-01-13T03:20:26.314Z,59.57
2019-01-13T03:22:56.623Z,60.23
2019-01-13T03:25:26.348Z,59.01
2019-01-13T03:27:55.960Z,59.11
2019-01-13T03:30:26.271Z,59.48
2019-01-13T03:32:56.054Z,58.96
2019-01-13T03:35:25.663Z,57.61
2019-01-13T03:37:55.349Z,58.93
2019-01-13T03:40:26.032Z,59.49
2019-01-13T03:42:55.862Z,59.28
2019-01-13T03:45:25.511Z,58.51
2019-01-13T03:47:55.086Z,58.44
2019-01-13T03:50:25.198Z,57.44
2019-01-13T03:52:54.827Z,58.39
2019-01-13T03:55:25.516Z,58.44
2019-01-13T03:57:55.210Z,59.62
2019-01-13T04:00:27.840Z,58.91
2019-01-13T04:02:57.573Z,58.93
2019-01-13T04:05:27.259Z,58.50
2019-01-13T04:07:56.936Z,60.31
2019-01-13T04:10:26.562Z,61.35
2019-01-13T04:12:56.225Z,61.55
2019-01-13T04:16:00.265Z,61.31
2019-01-13T04:18:29.966Z,60.84
2019-01-13T04:20:59.656Z,61.28
2019-01-13T04:23:29.360Z,61.30
2019-01-13T04:25:59.039Z,61.51
2019-01-13T04:28:28.642Z,61.72
2019-01-13T04:30:58.337Z,62.10
2019-01-13T04:33:28.024Z,62.68
2019-01-13T04:35:57.611Z,64.11
2019-01-13T04:38:27.312Z,63.44
2019-01-13T04:40:57.024Z,64.32
2019-01-13T04:43:26.716Z,64.86
2019-01-13T04:45:56.367Z,65.80
2019-01-13T04:48:25.933Z,66.38
2019-01-13T04:50:55.553Z,66.92
2019-01-13T04:53:25.221Z,65.56
2019-01-13T04:55:54.790Z,65.09
2019-01-13T04:58:24.407Z,64.97
2019-01-13T05:00:54.094Z,63.13
2019-01-13T05:03:23.732Z,64.52
2019-01-13T05:05:53.320Z,64.82
2019-01-13T05:08:23.029Z,66.61
2019-01-13T05:10:52.645Z,66.24
2019-01-13T05:13:22.234Z,68.70
2019-01-13T05:15:51.966Z,69.07
2019-01-13T05:18:21.564Z,69.72
2019-01-13T05:20:51.470Z,70.93
2019-01-13T05:23:21.142Z,69.74
2019-01-13T05:25:50.714Z,70.82
2019-01-13T05:28:20.472Z,70.37
2019-01-13T05:30:50.214Z,72.10
2019-01-13T05:33:19.812Z,72.73
2019-01-13T05:35:49.391Z,72.10
2019-01-13T05:38:19.125Z,73.08
2019-01-13T05:40:48.726Z,72.55
2019-01-13T05:43:18.294Z,72.67
2019-01-13T05:45:47.915Z,72.78
2019-01-13T05:48:17.481Z,72.41
2019-01-13T05:50:47.071Z,71.71
2019-01-13T05:53:16.773Z,71.08
2019-01-13T05:55:46.410Z,70.32
2019-01-13T05:58:15.986Z,70.61
2019-01-13T06:00:45.689Z,69.63
2019-01-13T06:03:15.233Z,70.90
2019-01-13T06:05:44.834Z,71.99
2019-01-13T06:08:14.471Z,71.28
2019-01-13T06:10:44.065Z,70.19
2019-01-13T06:13:13.633Z,70.33
2019-01-13T06:15:43.356Z,70.89
2019-01-13T06:18:12.974Z,70.80
2019-01-13T06:20:42.573Z,71.42
2019-01-13T06:23:12.307Z,70.08
2019-01-13T06:25:41.900Z,68.47
2019-01-13T06:28:11.502Z,67.96
2019-01-13T06:30:41.288Z,69.42
2019-01-13T06:33:10.898Z,68.68
2019-01-13T06:35:40.459Z,66.53
2019-01-13T06:38:10.155Z,68.07
2019-01-13T06:40:39.735Z,69.88
2019-01-13T06:43:09.333Z,70.93
2019-01-13T06:45:38.956Z,69.98
2019-01-13T06:48:08.523Z,69.75
2019-01-13T06:50:38.151Z,69.18
2019-01-13T06:53:07.761Z,68.01
2019-01-13T06:55:37.421Z,66.71
2019-01-13T06:58:06.991Z,65.47
2019-01-13T07:00:36.742Z,64.72
2019-01-13T07:03:06.523Z,63.73
2019-01-13T07:05:36.214Z,64.89
2019-01-13T07:08:05.918Z,64.99
2019-01-13T07:10:35.480Z,63.01
2019-01-13T07:13:05.279Z,65.23
2019-01-13T07:15:34.982Z,65.04
2019-01-13T07:18:04.667Z,65.84
2019-01-13T07:20:34.240Z,65.77
2019-01-13T07:23:03.884Z,64.71
2019-01-13T07:25:33.507Z,65.27
2019-01-13T07:28:03.156Z,64.50
2019-01-13T07:30:32.796Z,63.57
2019-01-13T07:33:02.386Z,62.57
2019-01-13T07:35:31.965Z,61.77
2019-01-13T07:38:01.720Z,60.83
2019-01-13T07:40:31.278Z,60.34
2019-01-13T07:43:00.880Z,60.23
2019-01-13T07:45:30.843Z,59.83
2019-01-13T07:48:00.424Z,59.29
2019-01-13T07:50:29.964Z,59.27
2019-01-13T07:52:59.583Z,59.45
2019-01-13T07:55:29.146Z,58.01
2019-01-13T07:57:58.764Z,58.91
2019-01-13T08:00:33.171Z,57.89
2019-01-13T08:03:04.051Z,58.23
2019-01-13T08:05:33.620Z,57.40
2019-01-13T08:08:03.505Z,56.12
2019-01-13T08:10:33.246Z,55.39
2019-01-13T08:13:02.814Z,55.11
2019-01-13T08:15:32.412Z,54.29
2019-01-13T08:18:01.988Z,52.85
2019-01-13T08:20:32.895Z,52.72
2019-01-13T08:23:02.664Z,52.71
2019-01-13T08:25:32.320Z,52.98
2019-01-13T08:28:02.009Z,52.92
2019-01-13T08:30:31.833Z,53.03
2019-01-13T08:33:01.430Z,53.02
2019-01-13T08:35:31.032Z,52.33
2019-01-13T08:38:00.685Z,50.59
2019-01-13T08:40:30.262Z,51.18
2019-01-13T08:42:59.864Z,50.68
2019-01-13T08:45:29.540Z,50.20
2019-01-13T08:47:59.163Z,50.01
2019-01-13T08:50:28.740Z,49.72
2019-01-13T08:52:58.518Z,48.93
2019-01-13T08:55:31.392Z,49.18
2019-01-13T08:58:01.109Z,50.07
2019-01-13T09:00:34.830Z,50.05
2019-01-13T09:03:08.291Z,51.04
2019-01-13T09:05:38.034Z,50.17
2019-01-13T09:08:08.054Z,50.58
2019-01-13T09:10:37.646Z,50.98
2019-01-13T09:13:07.430Z,50.85
2019-01-13T09:15:37.202Z,51.48
2019-01-13T09:18:06.916Z,49.94
2019-01-13T09:20:36.640Z,49.26
2019-01-13T09:23:06.593Z,48.22
2019-01-13T09:25:37.645Z,47.45
2019-01-13T09:28:08.466Z,47.56
2019-01-13T09:30:38.066Z,47.48
2019-01-13T09:33:07.931Z,47.87
2019-01-13T09:35:37.639Z,47.26
2019-01-13T09:38:07.389Z,46.99
2019-01-13T09:40:36.964Z,46.39
2019-01-13T09:43:07.102Z,46.54
2019-01-13T09:45:36.689Z,45.05
2019-01-13T09:48:06.542Z,46.41
2019-01-13T09:50:36.139Z,45.96
2019-01-13T09:53:06.250Z,45.23
2019-01-13T09:55:35.846Z,44.85
2019-01-13T09:58:05.420Z,45.85
2019-01-13T10:00:37.670Z,46.17
2019-01-13T10:03:08.698Z,46.10
2019-01-13T10:05:38.564Z,46.01
2019-01-13T10:08:09.019Z,46.07
2019-01-13T10:10:38.754Z,46.14
2019-01-13T10:13:08.369Z,43.72
2019-01-13T10:15:38.206Z,44.20
2019-01-13T10:18:08.139Z,44.95
2019-01-13T10:20:37.788Z,45.30
2019-01-13T10:23:07.473Z,44.94
2019-01-13T10:25:37.208Z,45.03
2019-01-13T10:28:07.125Z,44.95
2019-01-13T10:30:36.722Z,44.59
2019-01-13T10:33:06.396Z,43.52
2019-01-13T10:35:36.034Z,44.36
2019-01-13T10:38:05.779Z,44.27
2019-01-13T10:40:35.373Z,43.19
2019-01-13T10:43:05.084Z,43.53
2019-01-13T10:45:34.718Z,43.89
2019-01-13T10:48:04.510Z,43.67
2019-01-13T10:50:34.254Z,44.25
2019-01-13T10:53:06.453Z,43.92
2019-01-13T10:55:36.315Z,42.68
2019-01-13T10:58:06.842Z,42.30
2019-01-13T11:00:37.576Z,40.95
2019-01-13T11:03:07.502Z,40.60
2019-01-13T11:05:37.474Z,42.21
2019-01-13T11:08:11.697Z,41.89
2019-01-13T11:10:39.005Z,43.18
2019-01-13T11:13:08.636Z,43.13
2019-01-13T11:15:38.327Z,43.53
2019-01-13T11:18:08.447Z,42.85
2019-01-13T11:20:39.586Z,43.69
2019-01-13T11:23:09.438Z,43.66
2019-01-13T11:25:39.305Z,43.68
2019-01-13T11:28:09.392Z,44.20
2019-01-13T11:30:39.119Z,44.59
2019-01-13T11:33:09.601Z,44.13
2019-01-13T11:35:39.575Z,44.66
2019-01-13T11:38:09.828Z,43.85
2019-01-13T11:40:39.471Z,43.85
2019-01-13T11:43:09.210Z,43.95
2019-01-13T11:45:38.828Z,43.38
2019-01-13T11:48:08.473Z,43.64
2019-01-13T11:50:38.236Z,43.34
2019-01-13T11:53:07.913Z,43.13
2019-01-13T11:55:37.506Z,42.78
2019-01-13T11:58:07.349Z,42.18
2019-01-13T12:00:44.714Z,42.28
2019-01-13T12:03:17.147Z,42.33
2019-01-13T12:05:46.149Z,42.68
2019-01-13T12:08:15.933Z,42.75
2019-01-13T12:10:45.600Z,42.70
2019-01-13T12:13:15.163Z,42.35
2019-01-13T12:15:44.848Z,42.11
2019-01-13T12:18:14.636Z,41.97
2019-01-13T12:20:44.261Z,42.73
2019-01-13T12:23:13.837Z,42.22
2019-01-13T12:25:43.482Z,42.54
2019-01-13T12:28:13.051Z,42.38
2019-01-13T12:30:42.632Z,41.96
2019-01-13T12:33:12.307Z,41.52
2019-01-13T12:35:41.964Z,42.84
2019-01-13T12:38:11.568Z,41.79
2019-01-13T12:40:41.213Z,41.58
2019-01-13T12:43:10.975Z,41.74
2019-01-13T12:45:40.539Z,41.79
2019-01-13T12:48:10.394Z,42.18
2019-01-13T12:50:40.043Z,42.61
2019-01-13T12:53:09.645Z,41.99
2019-01-13T12:55:39.314Z,41.10
2019-01-13T12:58:08.930Z,41.40
2019-01-13T13:00:38.571Z,41.84
2019-01-13T13:03:08.322Z,41.18
2019-01-13T13:05:37.936Z,39.92
2019-01-13T13:08:07.523Z,41.34
2019-01-13T13:10:39.553Z,41.34
2019-01-13T13:13:09.444Z,40.33
2019-01-13T13:15:39.143Z,40.23
2019-01-13T13:18:08.785Z,40.50
2019-01-13T13:20:38.585Z,40.79
2019-01-13T13:23:08.643Z,40.34
2019-01-13T13:25:38.394Z,40.42
2019-01-13T13:28:08.253Z,40.99
2019-01-13T13:30:37.955Z,40.89
2019-01-13T13:33:07.733Z,40.75
2019-01-13T13:35:39.963Z,41.19
2019-01-13T13:38:09.041Z,40.68
2019-01-13T13:40:38.989Z,41.60
2019-01-13T13:43:08.566Z,42.12
2019-01-13T13:45:39.511Z,41.76
2019-01-13T13:48:09.217Z,41.28
2019-01-13T13:50:38.785Z,39.83
2019-01-13T13:53:08.576Z,40.44
2019-01-13T13:55:38.297Z,40.99
2019-01-13T13:58:08.103Z,41.65
2019-01-13T14:00:39.010Z,40.88
2019-01-13T14:03:08.824Z,59.66
2019-01-13T14:05:40.889Z,58.17
2019-01-13T14:08:10.618Z,42.25
2019-01-13T14:10:42.074Z,41.11
2019-01-13T14:13:11.865Z,41.15
2019-01-13T14:15:41.733Z,42.08
2019-01-13T14:18:11.500Z,41.62
2019-01-13T14:20:41.182Z,41.84
2019-01-13T14:23:10.772Z,42.03
2019-01-13T14:25:40.510Z,42.27
2019-01-13T14:28:10.090Z,42.47
2019-01-13T14:30:39.785Z,43.14
2019-01-13T14:33:09.506Z,44.48
2019-01-13T14:35:39.222Z,44.58
2019-01-13T14:38:08.949Z,44.48
2019-01-13T14:40:38.696Z,44.07
2019-01-13T14:43:08.282Z,44.91
2019-01-13T14:45:37.915Z,43.92
2019-01-13T14:48:07.646Z,43.31
2019-01-13T14:50:37.260Z,43.93
2019-01-13T14:53:08.057Z,44.33
2019-01-13T14:55:37.897Z,44.49
2019-01-13T14:58:08.062Z,44.40
2019-01-13T15:00:37.744Z,43.24
2019-01-13T15:03:07.549Z,42.89
2019-01-13T15:05:37.150Z,43.55
2019-01-13T15:08:06.993Z,43.41
2019-01-13T15:10:36.649Z,43.79
2019-01-13T15:13:06.415Z,44.34
2019-01-13T15:15:36.114Z,44.76
2019-01-13T15:18:06.638Z,45.28
2019-01-13T15:20:36.248Z,43.88
2019-01-13T15:23:06.078Z,43.61
2019-01-13T15:25:35.885Z,44.00
2019-01-13T15:28:05.656Z,44.71
2019-01-13T15:30:39.277Z,45.83
2019-01-13T15:33:10.047Z,45.57
2019-01-13T15:35:39.700Z,44.86
2019-01-13T15:38:10.434Z,43.60
2019-01-13T15:40:40.382Z,42.64
2019-01-13T15:43:10.044Z,42.38
2019-01-13T15:45:39.645Z,42.37
2019-01-13T15:48:09.524Z,42.76
2019-01-13T15:50:39.111Z,43.53
2019-01-13T15:53:08.731Z,42.26
2019-01-13T15:55:38.466Z,42.53
2019-01-13T15:58:08.275Z,45.14
2019-01-13T16:00:38.727Z,44.29
2019-01-13T16:03:09.600Z,44.61
2019-01-13T16:05:39.607Z,45.26
2019-01-13T16:08:09.451Z,45.88
2019-01-13T16:10:39.255Z,45.44
2019-01-13T16:13:08.819Z,44.23
2019-01-13T16:15:38.474Z,45.26
2019-01-13T16:18:09.284Z,46.37
2019-01-13T16:20:40.489Z,47.10
2019-01-13T16:23:10.204Z,47.29
2019-01-13T16:25:39.967Z,47.59
2019-01-13T16:28:09.776Z,46.56
2019-01-13T16:30:39.543Z,46.04
2019-01-13T16:33:09.212Z,46.01
2019-01-13T16:35:38.823Z,46.86
2019-01-13T16:38:08.439Z,46.86
2019-01-13T16:40:38.180Z,48.04
2019-01-13T16:43:07.794Z,48.53
2019-01-13T16:45:37.365Z,48.68
2019-01-13T16:48:07.411Z,49.26
2019-01-13T16:50:37.039Z,49.40
2019-01-13T16:53:06.892Z,49.22
2019-01-13T16:55:36.540Z,48.99
2019-01-13T16:58:06.626Z,49.31
2019-01-13T17:00:36.304Z,49.49
2019-01-13T17:03:06.161Z,49.39
2019-01-13T17:05:35.878Z,49.52
2019-01-13T17:08:05.681Z,49.25
2019-01-13T17:10:35.334Z,48.89
2019-01-13T17:13:05.003Z,48.12
2019-01-13T17:15:38.200Z,48.62
2019-01-13T17:18:09.275Z,49.73
2019-01-13T17:20:39.173Z,49.90
2019-01-13T17:23:08.831Z,49.90
2019-01-13T17:25:38.464Z,49.68
2019-01-13T17:28:08.106Z,49.55
2019-01-13T17:30:37.942Z,50.06
2019-01-13T17:33:07.820Z,49.38
2019-01-13T17:35:37.401Z,51.63
2019-01-13T17:38:07.320Z,50.15
2019-01-13T17:40:37.104Z,50.59
2019-01-13T17:43:06.811Z,50.88
2019-01-13T17:45:36.650Z,51.30
2019-01-13T17:48:08.013Z,51.74
2019-01-13T17:50:37.611Z,52.03
2019-01-13T17:53:08.763Z,53.62
2019-01-13T17:55:38.627Z,54.56
2019-01-13T17:58:08.853Z,54.74
2019-01-13T18:00:41.777Z,54.22
2019-01-13T18:03:12.853Z,53.66
2019-01-13T18:05:42.542Z,53.31
2019-01-13T18:08:12.196Z,52.91
2019-01-13T18:10:41.891Z,53.06
2019-01-13T18:13:11.785Z,53.13
2019-01-13T18:15:41.388Z,53.56
2019-01-13T18:18:11.038Z,53.00
2019-01-13T18:20:40.644Z,53.29
2019-01-13T18:23:10.317Z,53.69
2019-01-13T18:25:40.079Z,53.38
2019-01-13T18:28:09.723Z,53.98
2019-01-13T18:30:39.310Z,54.15
2019-01-13T18:33:08.944Z,53.96
2019-01-13T18:35:38.532Z,53.47
2019-01-13T18:38:08.117Z,54.50
2019-01-13T18:40:38.216Z,54.15
2019-01-13T18:43:07.906Z,55.34
2019-01-13T18:45:37.490Z,55.34
2019-01-13T18:48:07.216Z,54.92
2019-01-13T18:50:36.880Z,55.21
2019-01-13T18:53:08.979Z,55.67
2019-01-13T18:55:38.593Z,56.60
2019-01-13T18:58:08.329Z,55.23
2019-01-13T19:00:37.922Z,55.34
2019-01-13T19:03:07.545Z,55.18
2019-01-13T19:05:37.159Z,56.02
2019-01-13T19:08:06.754Z,56.46
2019-01-13T19:10:49.508Z,56.47
2019-01-13T19:13:27.700Z,55.97
2019-01-13T19:15:57.500Z,56.46
2019-01-13T19:18:27.083Z,62.33
2019-01-13T19:20:56.758Z,56.82
2019-01-13T19:23:27.679Z,57.07
2019-01-13T19:25:57.262Z,57.30
2019-01-13T19:28:26.812Z,57.81
2019-01-13T19:30:56.497Z,58.20
2019-01-13T19:33:26.121Z,58.57
2019-01-13T19:35:55.746Z,58.58
2019-01-13T19:38:25.456Z,59.54
2019-01-13T19:40:55.075Z,57.93
2019-01-13T19:43:24.686Z,57.47
2019-01-13T19:45:54.396Z,57.12
2019-01-13T19:48:23.991Z,56.87
2019-01-13T19:50:53.557Z,56.80
2019-01-13T19:53:23.212Z,56.34
2019-01-13T19:55:52.784Z,55.68
2019-01-13T19:58:22.363Z,55.23
2019-01-13T20:00:52.075Z,56.37
2019-01-13T20:03:21.691Z,57.18
2019-01-13T20:05:51.285Z,55.22
2019-01-13T20:08:20.930Z,55.92
2019-01-13T20:10:50.707Z,56.84
2019-01-13T20:13:20.350Z,56.15
2019-01-13T20:15:50.002Z,56.84
2019-01-13T20:18:19.595Z,56.49
2019-01-13T20:20:49.187Z,56.19
2019-01-13T20:23:18.855Z,55.04
2019-01-13T20:25:48.462Z,54.70
2019-01-13T20:28:18.062Z,56.29
2019-01-13T20:30:47.772Z,56.15
2019-01-13T20:33:17.353Z,56.78
2019-01-13T20:35:46.957Z,57.63
2019-01-13T20:38:16.599Z,57.83
2019-01-13T20:40:46.193Z,58.66
2019-01-13T20:43:15.782Z,57.87
2019-01-13T20:45:45.417Z,56.94
2019-01-13T20:48:15.076Z,56.67
2019-01-13T20:50:44.742Z,55.66
2019-01-13T20:53:14.427Z,55.43
2019-01-13T20:55:44.014Z,55.68
2019-01-13T20:58:13.604Z,54.68
2019-01-13T21:00:43.309Z,55.51
2019-01-13T21:03:12.905Z,53.53
2019-01-13T21:05:42.468Z,55.37
2019-01-13T21:08:12.154Z,55.35
2019-01-13T21:10:41.760Z,58.36
2019-01-13T21:13:11.346Z,56.41
2019-01-13T21:15:41.057Z,56.76
2019-01-13T21:18:10.629Z,57.15
2019-01-13T21:20:40.275Z,56.38
2019-01-13T21:23:09.996Z,56.66
2019-01-13T21:25:39.590Z,56.55
2019-01-13T21:28:09.461Z,55.93
2019-01-13T21:30:39.118Z,55.63
2019-01-13T21:33:08.712Z,54.63
2019-01-13T21:35:38.292Z,54.53
2019-01-13T21:38:07.932Z,55.64
2019-01-13T21:40:37.546Z,56.70
2019-01-13T21:43:07.141Z,57.64
2019-01-13T21:45:36.762Z,57.57
2019-01-13T21:48:06.365Z,58.51
2019-01-13T21:50:35.977Z,58.36
2019-01-13T21:53:05.797Z,58.26
2019-01-13T21:55:35.403Z,57.68
2019-01-13T21:58:04.965Z,57.29
2019-01-13T22:00:34.581Z,56.81
2019-01-13T22:03:04.667Z,58.03
2019-01-13T22:05:40.819Z,56.68
2019-01-13T22:08:06.100Z,57.03
2019-01-13T22:10:35.665Z,57.04
2019-01-13T22:13:05.424Z,57.11
2019-01-13T22:15:35.272Z,57.92
2019-01-13T22:18:05.301Z,58.34
2019-01-13T22:20:34.857Z,59.97
2019-01-13T22:23:04.711Z,61.09
2019-01-13T22:25:34.317Z,61.75
2019-01-13T22:28:03.896Z,63.32
2019-01-13T22:30:33.629Z,62.90
2019-01-13T22:33:03.233Z,63.45
2019-01-13T22:35:32.779Z,65.26
2019-01-13T22:38:02.496Z,62.38
2019-01-13T22:40:32.071Z,62.10
2019-01-13T22:43:02.562Z,64.33
2019-01-13T22:45:32.827Z,63.64
2019-01-13T22:48:02.510Z,64.49
2019-01-13T22:50:32.149Z,65.52
2019-01-13T22:53:01.773Z,64.61
2019-01-13T22:55:31.388Z,64.08
2019-01-13T22:58:00.999Z,64.12
2019-01-13T23:01:07.817Z,65.99
2019-01-13T23:03:38.251Z,66.35
2019-01-13T23:06:08.108Z,68.70
2019-01-13T23:08:37.763Z,68.04
2019-01-13T23:11:07.416Z,67.45
2019-01-13T23:13:37.032Z,69.03
2019-01-13T23:16:06.944Z,69.20
2019-01-13T23:18:36.575Z,70.71
2019-01-13T23:21:06.184Z,69.89
2019-01-13T23:23:35.875Z,71.13
2019-01-13T23:26:05.612Z,70.10
2019-01-13T23:28:35.291Z,70.89
2019-01-13T23:31:04.985Z,72.52
2019-01-13T23:33:34.584Z,72.93
2019-01-13T23:36:04.221Z,74.22
2019-01-13T23:38:33.950Z,73.89
2019-01-13T23:41:03.539Z,75.12
2019-01-13T23:43:33.135Z,75.18
2019-01-13T23:46:02.775Z,76.59
2019-01-13T23:48:32.368Z,76.86
2019-01-13T23:51:02.065Z,76.57
2019-01-13T23:53:31.698Z,75.41
2019-01-13T23:56:01.283Z,73.59
2019-01-13T23:58:30.884Z,73.12
